createdAt,value
2019-05-06T00:01:33.781Z,13.80
2019-05-06T00:04:04.898Z,13.80
2019-05-06T00:06:35.794Z,13.80
2019-05-06T00:09:07.953Z,13.80
2019-05-06T00:11:38.511Z,13.70
2019-05-06T00:14:09.056Z,13.70
2019-05-06T00:16:39.844Z,13.70
2019-05-06T00:19:10.373Z,13.70
2019-05-06T00:21:40.965Z,13.70
2019-05-06T00:24:11.526Z,13.70
2019-05-06T00:26:59.163Z,13.70
2019-05-06T00:29:31.495Z,13.60
2019-05-06T00:32:04.282Z,13.60
2019-05-06T00:34:34.418Z,13.60
2019-05-06T00:37:06.283Z,13.60
2019-05-06T00:39:51.520Z,13.60
2019-05-06T00:42:34.618Z,13.50
2019-05-06T00:45:06.361Z,13.50
2019-05-06T00:47:36.894Z,13.50
2019-05-06T00:50:10.038Z,13.50
2019-05-06T00:52:40.686Z,13.50
2019-05-06T00:55:13.586Z,13.40
2019-05-06T00:57:44.242Z,13.40
2019-05-06T01:00:24.387Z,13.40
2019-05-06T01:02:55.171Z,13.40
2019-05-06T01:05:25.712Z,13.40
2019-05-06T01:07:56.292Z,13.30
2019-05-06T01:10:26.810Z,13.30
2019-05-06T01:13:06.259Z,13.30
2019-05-06T01:15:36.960Z,13.30
2019-05-06T01:18:07.731Z,13.30
2019-05-06T01:20:38.261Z,13.30
2019-05-06T01:23:08.821Z,13.30
2019-05-06T01:25:39.334Z,13.20
2019-05-06T01:28:09.964Z,13.20
2019-05-06T01:30:40.503Z,13.20
2019-05-06T01:33:11.124Z,13.20
2019-05-06T01:35:41.658Z,13.20
2019-05-06T01:38:39.924Z,13.20
2019-05-06T01:41:28.374Z,13.10
2019-05-06T01:43:58.950Z,13.00
2019-05-06T01:46:29.453Z,13.00
2019-05-06T01:49:00.000Z,13.00
2019-05-06T01:51:31.649Z,13.00
2019-05-06T01:54:03.748Z,13.00
2019-05-06T01:56:34.435Z,13.00
2019-05-06T01:59:05.185Z,13.00
2019-05-06T02:01:36.955Z,13.00
2019-05-06T02:04:07.563Z,13.00
2019-05-06T02:06:38.097Z,12.90
2019-05-06T02:09:16.356Z,12.90
2019-05-06T02:11:48.073Z,12.90
2019-05-06T02:14:19.053Z,12.90
2019-05-06T02:16:49.569Z,12.90
2019-05-06T02:19:20.129Z,12.90
2019-05-06T02:22:18.908Z,12.90
2019-05-06T02:24:55.864Z,12.90
2019-05-06T02:27:26.482Z,12.90
2019-05-06T02:30:05.492Z,12.90
2019-05-06T02:32:55.736Z,12.90
2019-05-06T02:35:35.000Z,12.80
2019-05-06T02:38:07.400Z,12.80
2019-05-06T02:40:58.305Z,12.80
2019-05-06T02:43:28.916Z,12.80
2019-05-06T02:46:00.290Z,12.80
2019-05-06T02:48:54.918Z,12.80
2019-05-06T02:51:27.526Z,12.80
2019-05-06T02:53:59.528Z,12.80
2019-05-06T02:56:33.154Z,12.80
2019-05-06T02:59:03.953Z,12.80
2019-05-06T03:01:34.685Z,12.80
2019-05-06T03:04:06.629Z,12.90
2019-05-06T03:06:37.217Z,12.90
2019-05-06T03:09:08.337Z,12.90
2019-05-06T03:11:38.908Z,12.90
2019-05-06T03:14:09.537Z,12.90
2019-05-06T03:16:40.095Z,12.90
2019-05-06T03:19:13.302Z,12.90
2019-05-06T03:22:08.494Z,12.90
2019-05-06T03:25:08.689Z,12.80
2019-05-06T03:27:39.312Z,12.80
2019-05-06T03:30:15.819Z,12.90
2019-05-06T03:33:20.259Z,12.90
2019-05-06T03:35:33.172Z,12.90
2019-05-06T03:37:47.507Z,12.90
2019-05-06T03:40:22.924Z,12.90
2019-05-06T03:42:54.121Z,12.90
2019-05-06T03:45:33.598Z,12.90
2019-05-06T03:48:07.540Z,12.90
2019-05-06T03:50:38.078Z,12.90
2019-05-06T03:53:09.562Z,12.90
2019-05-06T03:55:46.490Z,13.00
2019-05-06T03:58:15.238Z,13.00
2019-05-06T04:00:46.787Z,13.00
2019-05-06T04:03:17.549Z,13.00
2019-05-06T04:05:49.430Z,13.00
2019-05-06T04:08:24.097Z,13.00
2019-05-06T04:10:55.030Z,13.00
2019-05-06T04:13:25.641Z,13.00
2019-05-06T04:16:23.033Z,13.00
2019-05-06T04:19:13.065Z,13.00
2019-05-06T04:21:53.523Z,12.90
2019-05-06T04:24:37.982Z,13.00
2019-05-06T04:27:37.704Z,13.00
2019-05-06T04:30:09.760Z,12.90
2019-05-06T04:32:43.178Z,12.90
2019-05-06T04:35:13.930Z,13.00
2019-05-06T04:37:44.959Z,13.00
2019-05-06T04:40:17.720Z,13.00
2019-05-06T04:42:48.250Z,13.10
2019-05-06T04:45:18.898Z,13.10
2019-05-06T04:47:49.479Z,13.10
2019-05-06T04:50:20.007Z,13.20
2019-05-06T04:53:04.637Z,13.20
2019-05-06T04:55:36.783Z,13.20
2019-05-06T04:58:07.634Z,13.20
2019-05-06T05:00:39.928Z,13.30
2019-05-06T05:03:14.062Z,13.30
2019-05-06T05:05:45.025Z,13.30
2019-05-06T05:08:16.629Z,13.30
2019-05-06T05:11:04.917Z,13.30
2019-05-06T05:13:53.357Z,13.30
2019-05-06T05:16:44.216Z,13.30
2019-05-06T05:19:15.001Z,13.40
2019-05-06T05:21:45.795Z,13.40
2019-05-06T05:24:16.401Z,13.40
2019-05-06T05:26:47.225Z,13.50
2019-05-06T05:29:17.951Z,13.50
2019-05-06T05:31:49.828Z,13.50
2019-05-06T05:34:22.434Z,13.60
2019-05-06T05:36:52.834Z,13.60
2019-05-06T05:39:23.782Z,13.60
2019-05-06T05:41:56.026Z,13.70
2019-05-06T05:44:34.342Z,13.80
2019-05-06T05:47:05.258Z,13.80
2019-05-06T05:49:53.349Z,13.90
2019-05-06T05:52:24.278Z,14.00
2019-05-06T05:54:55.694Z,14.10
2019-05-06T05:57:26.250Z,14.20
2019-05-06T05:59:58.274Z,14.30
2019-05-06T06:02:28.814Z,14.40
2019-05-06T06:04:59.456Z,14.50
2019-05-06T06:07:30.078Z,14.60
2019-05-06T06:10:19.779Z,14.70
2019-05-06T06:12:52.674Z,14.80
2019-05-06T06:15:39.640Z,14.90
2019-05-06T06:18:29.266Z,15.00
2019-05-06T06:21:27.146Z,15.10
2019-05-06T06:23:55.090Z,15.20
2019-05-06T06:26:25.688Z,15.20
2019-05-06T06:28:56.315Z,15.30
2019-05-06T06:31:48.703Z,15.40
2019-05-06T06:34:44.048Z,15.40
2019-05-06T06:37:33.253Z,15.50
2019-05-06T06:40:04.498Z,15.50
2019-05-06T06:42:35.055Z,15.60
2019-05-06T06:45:07.786Z,15.70
2019-05-06T06:47:38.677Z,15.80
2019-05-06T06:50:12.546Z,15.90
2019-05-06T06:52:43.612Z,16.00
2019-05-06T06:55:14.157Z,16.10
2019-05-06T06:58:17.133Z,16.10
2019-05-06T07:01:13.111Z,16.20
2019-05-06T07:04:10.047Z,16.30
2019-05-06T07:06:44.771Z,16.30
2019-05-06T07:09:15.287Z,16.40
2019-05-06T07:11:45.840Z,16.50
2019-05-06T07:14:16.411Z,16.60
2019-05-06T07:16:47.017Z,16.70
2019-05-06T07:19:22.991Z,16.80
2019-05-06T07:21:57.156Z,16.90
2019-05-06T07:24:27.798Z,17.00
2019-05-06T07:27:22.678Z,17.10
2019-05-06T07:29:52.916Z,17.10
2019-05-06T07:32:23.532Z,17.20
2019-05-06T07:34:55.527Z,17.30
2019-05-06T07:37:26.149Z,17.40
2019-05-06T07:39:56.809Z,17.40
2019-05-06T07:42:40.351Z,17.50
2019-05-06T07:45:21.904Z,17.60
2019-05-06T07:47:58.065Z,17.70
2019-05-06T07:50:28.624Z,17.70
2019-05-06T07:53:09.374Z,17.70
2019-05-06T07:55:42.487Z,17.80
2019-05-06T07:58:13.745Z,17.80
2019-05-06T08:00:44.829Z,17.90
2019-05-06T08:03:16.399Z,17.90
2019-05-06T08:05:58.055Z,17.90
2019-05-06T08:08:19.452Z,18.00
2019-05-06T08:10:49.967Z,18.00
2019-05-06T08:13:22.555Z,18.00
2019-05-06T08:15:53.608Z,18.00
2019-05-06T08:18:24.446Z,18.10
2019-05-06T08:20:55.937Z,18.10
2019-05-06T08:23:33.404Z,18.10
2019-05-06T08:26:11.940Z,18.10
2019-05-06T08:28:41.664Z,18.00
2019-05-06T08:31:12.820Z,18.00
2019-05-06T08:33:43.576Z,18.00
2019-05-06T08:36:19.537Z,17.90
2019-05-06T08:38:55.989Z,17.90
2019-05-06T08:41:27.321Z,17.80
2019-05-06T08:43:58.015Z,17.80
2019-05-06T08:46:28.621Z,17.80
2019-05-06T08:48:59.227Z,17.80
2019-05-06T08:51:45.116Z,17.70
2019-05-06T08:54:22.973Z,17.70
2019-05-06T08:56:53.658Z,17.70
2019-05-06T08:59:24.218Z,17.70
2019-05-06T09:01:55.798Z,17.70
2019-05-06T09:04:26.382Z,17.70
2019-05-06T09:06:56.925Z,17.70
2019-05-06T09:09:27.892Z,17.70
2019-05-06T09:11:58.574Z,17.70
2019-05-06T09:14:29.309Z,17.70
2019-05-06T09:16:59.836Z,17.70
2019-05-06T09:19:32.972Z,17.70
2019-05-06T09:22:04.909Z,17.70
2019-05-06T09:24:35.563Z,17.70
2019-05-06T09:27:28.031Z,17.70
2019-05-06T09:30:09.250Z,17.70
2019-05-06T09:32:43.096Z,17.70
2019-05-06T09:35:14.189Z,17.60
2019-05-06T09:37:44.809Z,17.60
2019-05-06T09:40:16.770Z,17.60
2019-05-06T09:42:47.352Z,17.60
2019-05-06T09:45:18.314Z,17.60
2019-05-06T09:48:03.641Z,17.60
2019-05-06T09:50:45.427Z,17.60
2019-05-06T09:53:19.399Z,17.50
2019-05-06T09:56:07.640Z,17.60
2019-05-06T09:58:42.829Z,17.50
2019-05-06T10:01:14.591Z,17.50
2019-05-06T10:03:45.113Z,17.50
2019-05-06T10:06:15.708Z,17.60
2019-05-06T10:08:46.253Z,17.60
2019-05-06T10:11:16.794Z,17.60
2019-05-06T10:13:47.749Z,17.60
2019-05-06T10:16:18.314Z,17.70
2019-05-06T10:18:49.174Z,17.70
2019-05-06T10:21:19.741Z,17.70
2019-05-06T10:23:52.732Z,17.70
2019-05-06T10:26:23.509Z,17.70
2019-05-06T10:29:02.906Z,17.70
2019-05-06T10:31:40.092Z,17.60
2019-05-06T10:34:13.827Z,17.60
2019-05-06T10:37:29.662Z,17.60
2019-05-06T10:40:13.483Z,17.60
2019-05-06T10:43:06.376Z,17.50
2019-05-06T10:45:37.182Z,17.50
2019-05-06T10:48:07.717Z,17.50
2019-05-06T10:50:43.838Z,17.60
2019-05-06T10:53:25.218Z,17.60
2019-05-06T10:55:57.334Z,17.60
2019-05-06T10:58:28.051Z,17.60
2019-05-06T11:01:12.508Z,17.60
2019-05-06T11:03:43.550Z,17.60
2019-05-06T11:06:14.168Z,17.70
2019-05-06T11:08:44.808Z,17.70
2019-05-06T11:11:24.830Z,17.70
2019-05-06T11:13:47.873Z,17.70
2019-05-06T11:16:18.565Z,17.70
2019-05-06T11:18:53.324Z,17.70
2019-05-06T11:21:24.315Z,17.70
2019-05-06T11:23:54.832Z,17.70
2019-05-06T11:26:25.794Z,17.80
2019-05-06T11:29:04.952Z,17.80
2019-05-06T11:31:43.184Z,17.80
2019-05-06T11:34:32.660Z,17.80
2019-05-06T11:37:19.647Z,17.80
2019-05-06T11:39:52.632Z,17.80
2019-05-06T11:42:28.901Z,17.80
2019-05-06T11:44:55.064Z,17.80
2019-05-06T11:47:25.655Z,17.80
2019-05-06T11:49:58.258Z,17.80
2019-05-06T11:52:29.126Z,17.90
2019-05-06T11:55:02.030Z,17.90
2019-05-06T11:57:52.953Z,17.90
2019-05-06T12:00:28.130Z,17.80
2019-05-06T12:02:59.110Z,17.80
2019-05-06T12:05:29.878Z,17.80
2019-05-06T12:08:07.675Z,17.90
2019-05-06T12:10:33.169Z,17.90
2019-05-06T12:13:05.785Z,18.00
2019-05-06T12:15:36.433Z,18.00
2019-05-06T12:18:07.297Z,18.00
2019-05-06T12:20:38.717Z,18.00
2019-05-06T12:23:09.381Z,18.00
2019-05-06T12:25:39.959Z,18.10
2019-05-06T12:28:12.370Z,18.10
2019-05-06T12:30:44.255Z,18.10
2019-05-06T12:33:36.693Z,18.10
2019-05-06T12:36:22.831Z,18.20
2019-05-06T12:39:15.954Z,18.20
2019-05-06T12:42:06.435Z,18.20
2019-05-06T12:44:38.738Z,18.20
2019-05-06T12:47:18.287Z,18.20
2019-05-06T12:49:48.872Z,18.30
2019-05-06T12:52:19.425Z,18.30
2019-05-06T12:54:54.221Z,18.40
2019-05-06T12:57:25.263Z,18.40
2019-05-06T12:59:55.998Z,18.40
2019-05-06T13:02:45.622Z,18.50
2019-05-06T13:05:17.066Z,18.50
2019-05-06T13:07:48.212Z,18.50
2019-05-06T13:10:23.064Z,18.60
2019-05-06T13:12:59.363Z,18.60
2019-05-06T13:15:29.985Z,18.60
2019-05-06T13:18:06.448Z,18.60
2019-05-06T13:20:37.943Z,18.60
2019-05-06T13:23:20.887Z,18.60
2019-05-06T13:25:46.245Z,18.60
2019-05-06T13:28:18.544Z,18.60
2019-05-06T13:30:49.157Z,18.60
2019-05-06T13:33:30.141Z,18.60
2019-05-06T13:36:00.881Z,18.50
2019-05-06T13:38:32.123Z,18.50
2019-05-06T13:41:03.395Z,18.50
2019-05-06T13:43:48.459Z,18.50
2019-05-06T13:46:24.901Z,18.50
2019-05-06T13:49:13.459Z,18.50
2019-05-06T13:51:53.383Z,18.50
2019-05-06T13:54:24.032Z,18.50
2019-05-06T13:56:54.880Z,18.50
2019-05-06T13:59:29.895Z,18.50
2019-05-06T14:02:20.195Z,18.50
2019-05-06T14:04:52.700Z,18.50
2019-05-06T14:07:24.421Z,18.50
2019-05-06T14:09:55.309Z,18.50
2019-05-06T14:12:25.959Z,18.50
2019-05-06T14:14:56.633Z,18.50
2019-05-06T14:17:28.855Z,18.60
2019-05-06T14:19:59.640Z,18.60
2019-05-06T14:22:32.492Z,18.60
2019-05-06T14:25:33.880Z,18.60
2019-05-06T14:28:29.509Z,18.60
2019-05-06T14:31:04.045Z,18.60
2019-05-06T14:33:36.058Z,18.60
2019-05-06T14:36:06.656Z,18.60
2019-05-06T14:38:37.339Z,18.70
2019-05-06T14:41:13.094Z,18.70
2019-05-06T14:43:45.409Z,18.70
2019-05-06T14:46:16.030Z,18.70
2019-05-06T14:48:46.806Z,18.70
2019-05-06T14:51:17.876Z,18.70
2019-05-06T14:53:48.462Z,18.70
2019-05-06T14:56:32.068Z,18.70
2019-05-06T14:59:06.807Z,18.60
2019-05-06T15:01:39.925Z,18.60
2019-05-06T15:04:12.534Z,18.60
2019-05-06T15:06:42.933Z,18.60
2019-05-06T15:09:13.643Z,18.60
2019-05-06T15:11:44.208Z,18.60
2019-05-06T15:14:14.773Z,18.60
2019-05-06T15:16:45.341Z,18.60
2019-05-06T15:19:15.902Z,18.60
2019-05-06T15:21:46.447Z,18.60
2019-05-06T15:24:21.197Z,18.50
2019-05-06T15:26:52.168Z,18.50
2019-05-06T15:29:23.756Z,18.50
2019-05-06T15:32:02.717Z,18.50
2019-05-06T15:34:42.289Z,18.50
2019-05-06T15:37:27.430Z,18.50
2019-05-06T15:39:58.001Z,18.50
2019-05-06T15:42:28.596Z,18.50
2019-05-06T15:44:59.236Z,18.50
2019-05-06T15:47:32.102Z,18.50
2019-05-06T15:50:02.172Z,18.50
2019-05-06T15:52:32.956Z,18.50
2019-05-06T15:55:03.501Z,18.50
2019-05-06T15:57:34.130Z,18.50
2019-05-06T16:00:05.079Z,18.60
2019-05-06T16:02:54.698Z,18.50
2019-05-06T16:05:26.677Z,18.50
2019-05-06T16:07:57.463Z,18.50
2019-05-06T16:10:28.110Z,18.50
2019-05-06T16:12:58.839Z,18.50
2019-05-06T16:15:33.504Z,18.50
2019-05-06T16:18:04.455Z,18.50
2019-05-06T16:20:35.434Z,18.50
2019-05-06T16:23:33.998Z,18.50
2019-05-06T16:26:04.806Z,18.50
2019-05-06T16:28:35.342Z,18.50
2019-05-06T16:31:05.905Z,18.50
2019-05-06T16:33:36.684Z,18.40
2019-05-06T16:36:07.280Z,18.40
2019-05-06T16:38:37.847Z,18.40
2019-05-06T16:41:12.757Z,18.40
2019-05-06T16:43:42.606Z,18.40
2019-05-06T16:46:13.152Z,18.40
2019-05-06T16:48:45.471Z,18.40
2019-05-06T16:51:16.275Z,18.30
2019-05-06T16:53:46.875Z,18.30
2019-05-06T16:56:36.510Z,18.30
2019-05-06T16:59:07.230Z,18.30
2019-05-06T17:01:39.911Z,18.30
2019-05-06T17:04:38.533Z,18.30
2019-05-06T17:07:11.788Z,18.20
2019-05-06T17:09:42.941Z,18.10
2019-05-06T17:12:13.936Z,18.10
2019-05-06T17:14:44.600Z,18.10
2019-05-06T17:17:15.257Z,18.10
2019-05-06T17:19:45.773Z,18.10
2019-05-06T17:22:16.478Z,18.10
2019-05-06T17:24:48.699Z,18.10
2019-05-06T17:27:19.476Z,18.10
2019-05-06T17:29:57.511Z,18.10
2019-05-06T17:32:45.311Z,18.10
2019-05-06T17:35:18.640Z,18.00
2019-05-06T17:38:06.439Z,18.00
2019-05-06T17:40:38.340Z,18.00
2019-05-06T17:43:08.919Z,18.00
2019-05-06T17:45:57.510Z,18.00
2019-05-06T17:48:27.797Z,18.00
2019-05-06T17:51:19.065Z,18.00
2019-05-06T17:53:52.466Z,17.90
2019-05-06T17:56:23.025Z,17.90
2019-05-06T17:58:53.689Z,17.90
2019-05-06T18:01:29.623Z,17.90
2019-05-06T18:04:02.244Z,17.90
2019-05-06T18:06:33.338Z,17.90
2019-05-06T18:09:05.961Z,17.90
2019-05-06T18:11:36.682Z,17.90
2019-05-06T18:14:07.495Z,17.90
2019-05-06T18:16:38.200Z,17.90
2019-05-06T18:19:09.991Z,17.90
2019-05-06T18:21:40.541Z,17.80
2019-05-06T18:24:13.031Z,17.80
2019-05-06T18:26:43.699Z,17.80
2019-05-06T18:29:14.342Z,17.80
2019-05-06T18:31:44.936Z,17.80
2019-05-06T18:34:15.604Z,17.70
2019-05-06T18:36:46.152Z,17.70
2019-05-06T18:39:18.538Z,17.70
2019-05-06T18:41:49.167Z,17.70
2019-05-06T18:44:25.443Z,17.60
2019-05-06T18:46:56.084Z,17.60
2019-05-06T18:49:26.711Z,17.50
2019-05-06T18:51:57.316Z,17.50
2019-05-06T18:54:28.399Z,17.50
2019-05-06T18:57:02.030Z,17.50
2019-05-06T18:59:33.030Z,17.40
2019-05-06T19:02:23.124Z,17.40
2019-05-06T19:05:02.237Z,17.30
2019-05-06T19:07:33.439Z,17.30
2019-05-06T19:10:19.755Z,17.30
2019-05-06T19:12:52.722Z,17.20
2019-05-06T19:15:23.530Z,17.20
2019-05-06T19:17:54.155Z,17.10
2019-05-06T19:20:25.838Z,17.10
2019-05-06T19:22:56.446Z,17.10
2019-05-06T19:25:28.148Z,17.10
2019-05-06T19:27:58.704Z,17.00
2019-05-06T19:30:29.370Z,17.00
2019-05-06T19:32:59.937Z,17.00
2019-05-06T19:35:34.150Z,16.90
2019-05-06T19:38:05.124Z,16.90
2019-05-06T19:40:35.379Z,16.80
2019-05-06T19:43:06.109Z,16.80
2019-05-06T19:45:36.706Z,16.80
2019-05-06T19:48:07.390Z,16.70
2019-05-06T19:50:38.966Z,16.70
2019-05-06T19:53:11.704Z,16.70
2019-05-06T19:55:45.480Z,16.60
2019-05-06T19:58:15.181Z,16.60
2019-05-06T20:00:46.067Z,16.60
2019-05-06T20:03:17.818Z,16.50
2019-05-06T20:06:06.182Z,16.50
2019-05-06T20:08:50.246Z,16.40
2019-05-06T20:11:26.975Z,16.30
2019-05-06T20:13:57.634Z,16.30
2019-05-06T20:16:28.235Z,16.30
2019-05-06T20:19:02.151Z,16.30
2019-05-06T20:21:32.815Z,16.30
2019-05-06T20:24:03.560Z,16.20
2019-05-06T20:26:34.261Z,16.20
2019-05-06T20:29:05.127Z,16.20
2019-05-06T20:31:36.819Z,16.20
2019-05-06T20:34:08.933Z,16.10
2019-05-06T20:36:41.790Z,16.10
2019-05-06T20:39:12.312Z,16.10
2019-05-06T20:41:43.071Z,16.00
2019-05-06T20:44:13.678Z,16.00
2019-05-06T20:46:44.278Z,16.00
2019-05-06T20:49:14.897Z,16.00
2019-05-06T20:51:45.515Z,15.90
2019-05-06T20:54:16.120Z,15.90
2019-05-06T20:56:46.655Z,15.90
2019-05-06T20:59:17.325Z,15.90
2019-05-06T21:01:48.096Z,15.90
2019-05-06T21:04:18.826Z,15.80
2019-05-06T21:06:49.380Z,15.80
2019-05-06T21:09:19.989Z,15.80
2019-05-06T21:11:52.634Z,15.80
2019-05-06T21:14:22.868Z,15.80
2019-05-06T21:19:17.943Z,15.70
2019-05-06T21:21:48.509Z,15.70
2019-05-06T21:24:19.057Z,15.70
2019-05-06T21:26:49.593Z,15.70
2019-05-06T21:29:23.087Z,15.70
2019-05-06T21:31:54.325Z,15.60
2019-05-06T21:34:25.011Z,15.60
2019-05-06T21:36:55.586Z,15.60
2019-05-06T21:39:26.176Z,15.60
2019-05-06T21:41:56.928Z,15.50
2019-05-06T21:44:27.482Z,15.50
2019-05-06T21:46:58.010Z,15.50
2019-05-06T21:49:28.701Z,15.50
2019-05-06T21:51:59.254Z,15.50
2019-05-06T21:54:29.818Z,15.40
2019-05-06T21:57:02.687Z,15.40
2019-05-06T21:59:32.810Z,15.40
2019-05-06T22:02:05.101Z,15.30
2019-05-06T22:04:35.679Z,15.30
2019-05-06T22:07:06.179Z,15.30
2019-05-06T22:09:36.774Z,15.20
2019-05-06T22:12:07.335Z,15.20
2019-05-06T22:14:38.008Z,15.20
2019-05-06T22:17:08.830Z,15.20
2019-05-06T22:19:42.709Z,15.20
2019-05-06T22:22:14.688Z,15.10
2019-05-06T22:24:57.724Z,15.10
2019-05-06T22:27:28.959Z,15.10
2019-05-06T22:30:03.189Z,15.10
2019-05-06T22:32:45.440Z,15.00
2019-05-06T22:35:17.469Z,15.00
2019-05-06T22:37:48.028Z,15.00
2019-05-06T22:40:19.344Z,14.90
2019-05-06T22:42:52.755Z,14.90
2019-05-06T22:45:23.497Z,14.90
2019-05-06T22:47:55.149Z,14.90
2019-05-06T22:50:25.813Z,14.90
2019-05-06T22:52:56.335Z,14.80
2019-05-06T22:55:26.930Z,14.80
2019-05-06T22:57:57.577Z,14.80
2019-05-06T23:00:30.156Z,14.70
2019-05-06T23:03:04.986Z,14.70
2019-05-06T23:05:35.590Z,14.70
2019-05-06T23:08:06.130Z,14.70
2019-05-06T23:10:38.171Z,14.70
2019-05-06T23:13:08.740Z,14.60
2019-05-06T23:15:39.322Z,14.60
2019-05-06T23:18:10.275Z,14.60
2019-05-06T23:20:42.905Z,14.60
2019-05-06T23:23:13.289Z,14.60
2019-05-06T23:25:45.475Z,14.60
2019-05-06T23:28:17.111Z,14.50
2019-05-06T23:30:47.678Z,14.50
2019-05-06T23:33:18.241Z,14.50
2019-05-06T23:35:48.819Z,14.50
2019-05-06T23:39:13.696Z,14.40
2019-05-06T23:42:38.181Z,14.10
2019-05-06T23:46:02.433Z,13.90
2019-05-06T23:49:26.543Z,13.70
2019-05-06T23:52:52.030Z,13.60
2019-05-06T23:56:16.350Z,13.50
2019-05-06T23:58:46.880Z,13.40
